Time;durP1;ratioP1;P1;durP2;ratioP2;P2;SDS_P1;SDS_P2;PMS_P1;PMS_P2;Temp;Humidity;BMP_temperature;BMP_pressure;BME280_temperature;BME280_humidity;BME280_pressure;Samples;Min_cycle;Max_cycle;Signal;HPM_P1;HPM_P2
2022/07/31 00:01:57;;;;;;;2.60;1.70;;;21.50;1.00;;;;;;5057046;28;20168;-84
2022/07/31 00:04:26;;;;;;;3.47;1.93;;;21.40;1.00;;;;;;5076006;28;20164;-86
2022/07/31 00:06:51;;;;;;;2.70;1.93;;;21.20;1.00;;;;;;5072802;28;20187;-82
2022/07/31 00:09:18;;;;;;;2.27;2.00;;;21.20;1.00;;;;;;5096035;28;20185;-80
2022/07/31 00:11:44;;;;;;;3.00;2.07;;;21.20;1.00;;;;;;5076841;28;20242;-85
2022/07/31 00:14:11;;;;;;;3.10;1.77;;;21.10;1.00;;;;;;5060825;28;20166;-84
2022/07/31 00:16:37;;;;;;;3.73;1.50;;;21.10;1.00;;;;;;5075350;28;20194;-81
2022/07/31 00:19:03;;;;;;;3.87;1.83;;;21.10;1.00;;;;;;5057227;28;20261;-80
2022/07/31 00:21:29;;;;;;;3.60;2.30;;;21.00;1.00;;;;;;5056476;28;20579;-82
2022/07/31 00:23:55;;;;;;;3.37;2.00;;;21.00;1.00;;;;;;5074249;28;20167;-84
2022/07/31 00:26:21;;;;;;;3.13;2.10;;;21.10;1.00;;;;;;5056233;28;20321;-80
2022/07/31 00:28:47;;;;;;;1.70;1.40;;;20.90;1.00;;;;;;5058368;28;20519;-80
2022/07/31 00:31:13;;;;;;;3.50;2.00;;;20.90;1.00;;;;;;5058078;28;20346;-84
2022/07/31 00:33:39;;;;;;;4.00;2.13;;;20.90;1.00;;;;;;5084301;28;20175;-82
2022/07/31 00:36:05;;;;;;;4.30;2.00;;;20.90;1.00;;;;;;5080845;28;20664;-81
2022/07/31 00:38:32;;;;;;;3.53;1.90;;;20.80;1.00;;;;;;5089986;28;20202;-81
2022/07/31 00:41:01;;;;;;;4.20;1.80;;;20.80;1.00;;;;;;5066307;28;20171;-81
2022/07/31 00:44:23;;;;;;;2.50;1.80;;;20.70;1.00;;;;;;5066158;28;20175;-81
2022/07/31 00:46:49;;;;;;;2.80;1.97;;;20.70;1.00;;;;;;5061114;28;20201;-82
2022/07/31 00:49:14;;;;;;;3.80;2.00;;;20.80;1.00;;;;;;5056649;28;20165;-82
2022/07/31 00:51:40;;;;;;;3.90;2.13;;;20.70;1.00;;;;;;5057998;28;20649;-80
2022/07/31 00:54:09;;;;;;;3.97;2.00;;;20.70;1.00;;;;;;5095082;28;20161;-80
2022/07/31 00:56:36;;;;;;;7.03;2.20;;;20.60;1.00;;;;;;5079710;28;20221;-83
2022/07/31 00:59:02;;;;;;;2.80;2.10;;;20.60;1.00;;;;;;5072030;28;20168;-79
2022/07/31 01:01:31;;;;;;;3.90;2.07;;;20.50;1.00;;;;;;5060005;28;20179;-83
2022/07/31 01:04:08;;;;;;;3.87;2.07;;;20.60;1.00;;;;;;5074093;28;20159;-82
2022/07/31 01:06:34;;;;;;;3.70;1.87;;;20.50;1.00;;;;;;5055514;28;20179;-80
2022/07/31 01:08:59;;;;;;;3.00;2.00;;;20.50;1.00;;;;;;5073619;28;20167;-83
2022/07/31 01:11:49;;;;;;;3.83;1.87;;;20.40;1.00;;;;;;5055356;28;20634;-80
2022/07/31 01:14:18;;;;;;;2.97;1.73;;;20.40;1.00;;;;;;5073228;28;20170;-78
2022/07/31 01:16:47;;;;;;;4.60;2.00;;;20.30;1.00;;;;;;5055786;28;20701;-82
2022/07/31 01:19:26;;;;;;;4.00;1.93;;;20.40;1.00;;;;;;5075587;28;20665;-81
2022/07/31 01:21:57;;;;;;;4.03;1.90;;;20.40;1.00;;;;;;5073220;28;20684;-82
2022/07/31 01:24:37;;;;;;;5.93;2.20;;;20.20;1.00;;;;;;5073261;28;20247;-80
2022/07/31 01:27:10;;;;;;;4.73;2.30;;;20.10;1.00;;;;;;5055920;28;20176;-83
2022/07/31 01:29:45;;;;;;;4.20;2.40;;;20.10;4.70;;;;;;5057446;28;20178;-85
2022/07/31 01:32:27;;;;;;;4.33;2.43;;;20.00;9.50;;;;;;5039953;28;20176;-81
2022/07/31 01:35:14;;;;;;;4.10;2.20;;;20.00;13.20;;;;;;5074283;28;20706;-84
2022/07/31 01:37:46;;;;;;;4.07;2.13;;;20.00;14.50;;;;;;5075198;28;20321;-84
2022/07/31 01:40:34;;;;;;;5.67;2.40;;;20.00;16.70;;;;;;5074618;28;20168;-83
2022/07/31 01:43:05;;;;;;;2.93;2.60;;;20.00;19.40;;;;;;5055263;28;20670;-79
2022/07/31 01:45:32;;;;;;;4.57;2.70;;;19.90;22.30;;;;;;5077452;28;20198;-81
2022/07/31 01:48:00;;;;;;;3.87;2.40;;;19.90;21.80;;;;;;5097098;28;20149;-79
2022/07/31 01:50:27;;;;;;;4.70;2.87;;;19.90;23.80;;;;;;5096279;28;20170;-79
2022/07/31 01:52:56;;;;;;;4.43;2.50;;;20.00;24.70;;;;;;5100853;28;20172;-84
2022/07/31 01:55:24;;;;;;;6.33;2.50;;;20.10;21.50;;;;;;5080780;28;20251;-82
2022/07/31 01:57:57;;;;;;;3.77;2.40;;;20.10;22.40;;;;;;5067188;28;20178;-83
2022/07/31 02:00:23;;;;;;;4.43;2.30;;;20.00;23.40;;;;;;5063801;28;20594;-81
2022/07/31 02:02:54;;;;;;;3.83;2.27;;;20.00;24.90;;;;;;5076677;28;20164;-81
2022/07/31 02:05:21;;;;;;;4.27;2.40;;;19.90;27.10;;;;;;5058533;28;20202;-80
2022/07/31 02:07:49;;;;;;;4.10;2.10;;;19.90;29.00;;;;;;5076245;28;20237;-82
2022/07/31 02:10:17;;;;;;;3.40;2.13;;;19.90;29.90;;;;;;5058117;28;20619;-80
2022/07/31 02:12:43;;;;;;;4.13;2.30;;;19.80;33.40;;;;;;5057735;28;20187;-80
2022/07/31 02:15:12;;;;;;;3.00;2.00;;;19.80;32.20;;;;;;5058360;28;20176;-80
2022/07/31 02:17:38;;;;;;;4.57;2.40;;;19.90;30.00;;;;;;5078546;28;20188;-80
2022/07/31 02:20:08;;;;;;;3.83;2.33;;;19.80;32.80;;;;;;5063433;28;20171;-83
2022/07/31 02:22:34;;;;;;;4.63;2.20;;;19.80;35.10;;;;;;5075437;28;20180;-83
2022/07/31 02:25:03;;;;;;;2.43;1.90;;;19.70;37.50;;;;;;5065493;28;20172;-84
2022/07/31 02:27:30;;;;;;;3.03;1.90;;;19.70;40.00;;;;;;5073588;28;20172;-81
2022/07/31 02:29:59;;;;;;;4.70;2.10;;;19.70;39.40;;;;;;5095935;28;20234;-79
2022/07/31 02:32:27;;;;;;;3.20;2.00;;;19.70;41.80;;;;;;5091061;28;20249;-81
2022/07/31 02:34:59;;;;;;;2.43;2.03;;;19.70;41.70;;;;;;5060412;28;20263;-81
2022/07/31 02:37:26;;;;;;;3.07;1.83;;;19.80;39.20;;;;;;5077755;28;20200;-82
2022/07/31 02:39:53;;;;;;;3.83;2.07;;;19.80;38.10;;;;;;5060031;28;20601;-84
2022/07/31 02:42:21;;;;;;;3.90;2.00;;;19.90;38.50;;;;;;5058704;28;20632;-80
2022/07/31 02:44:47;;;;;;;3.30;2.10;;;19.90;37.10;;;;;;5058414;28;20164;-80
2022/07/31 02:47:15;;;;;;;3.27;2.17;;;19.80;40.70;;;;;;5059963;28;20181;-83
2022/07/31 02:49:41;;;;;;;2.50;1.80;;;19.90;41.80;;;;;;5059195;28;20225;-83
2022/07/31 02:52:08;;;;;;;3.23;1.90;;;19.80;42.00;;;;;;5057841;28;20670;-82
2022/07/31 02:54:38;;;;;;;2.67;1.77;;;19.80;43.60;;;;;;5058069;28;20266;-82
2022/07/31 02:57:04;;;;;;;3.23;2.13;;;19.80;44.10;;;;;;5059276;28;20238;-82
2022/07/31 02:59:31;;;;;;;3.73;2.37;;;19.80;45.60;;;;;;5062063;28;20198;-82
2022/07/31 03:01:57;;;;;;;3.60;2.40;;;19.80;45.80;;;;;;5080933;28;20175;-85
2022/07/31 03:04:23;;;;;;;3.90;2.37;;;19.80;47.30;;;;;;5067133;28;20160;-79
2022/07/31 03:06:49;;;;;;;3.23;2.33;;;19.70;48.20;;;;;;5073581;28;20180;-79
2022/07/31 03:09:15;;;;;;;3.60;2.40;;;19.70;50.40;;;;;;5071573;28;20171;-80
2022/07/31 03:11:41;;;;;;;3.87;2.50;;;19.60;51.40;;;;;;5074641;28;20207;-80
2022/07/31 03:14:09;;;;;;;3.07;2.17;;;19.70;51.80;;;;;;5085756;28;20167;-80
2022/07/31 03:16:36;;;;;;;3.63;2.43;;;19.60;52.00;;;;;;5072615;28;20202;-81
2022/07/31 03:19:04;;;;;;;2.87;2.27;;;19.70;51.40;;;;;;5082714;28;20175;-80
2022/07/31 03:21:31;;;;;;;4.83;2.63;;;19.60;53.40;;;;;;5073554;28;20173;-80
2022/07/31 03:23:58;;;;;;;3.70;2.50;;;19.50;56.60;;;;;;5063954;28;20168;-84
2022/07/31 03:26:36;;;;;;;3.03;2.23;;;19.50;56.70;;;;;;5058435;28;20195;-80
2022/07/31 03:29:02;;;;;;;3.37;2.30;;;19.70;54.10;;;;;;5059698;28;20177;-81
2022/07/31 03:31:29;;;;;;;3.97;2.43;;;19.70;52.70;;;;;;5059712;28;20279;-81
2022/07/31 03:33:55;;;;;;;3.13;2.47;;;19.70;52.20;;;;;;5061155;28;20245;-81
2022/07/31 03:36:21;;;;;;;4.13;2.70;;;19.40;55.30;;;;;;5073687;28;20224;-80
2022/07/31 03:38:50;;;;;;;3.43;2.20;;;19.60;56.90;;;;;;5070526;28;20233;-81
2022/07/31 03:41:15;;;;;;;4.83;2.83;;;19.50;56.80;;;;;;5083280;28;20207;-81
2022/07/31 03:43:48;;;;;;;4.07;2.30;;;19.50;57.50;;;;;;5079126;28;20224;-80
2022/07/31 03:46:18;;;;;;;4.47;2.57;;;19.50;60.40;;;;;;5060337;28;20193;-82
2022/07/31 03:48:45;;;;;;;4.07;2.50;;;19.40;63.20;;;;;;5043459;28;20178;-81
2022/07/31 03:51:14;;;;;;;4.33;2.60;;;19.40;66.60;;;;;;5060425;28;20183;-83
2022/07/31 03:53:43;;;;;;;4.03;2.67;;;19.50;63.80;;;;;;5076523;28;20234;-81
2022/07/31 03:56:11;;;;;;;5.03;2.73;;;19.60;59.50;;;;;;5060071;28;20221;-81
2022/07/31 03:58:38;;;;;;;4.93;3.00;;;19.60;58.00;;;;;;5074213;28;20163;-81
2022/07/31 04:01:07;;;;;;;4.90;3.17;;;19.60;58.60;;;;;;5063952;28;20185;-82
2022/07/31 04:03:33;;;;;;;4.20;3.10;;;19.50;61.20;;;;;;5043880;28;20244;-80
2022/07/31 04:05:59;;;;;;;3.37;2.60;;;19.50;61.40;;;;;;5079041;28;20571;-80
2022/07/31 04:08:25;;;;;;;6.00;2.97;;;19.60;61.60;;;;;;5060752;28;20173;-81
2022/07/31 04:10:51;;;;;;;5.10;3.00;;;19.40;64.90;;;;;;5078158;28;20176;-80
2022/07/31 04:13:17;;;;;;;5.53;3.13;;;19.30;67.60;;;;;;5074368;28;20176;-84
2022/07/31 04:15:43;;;;;;;6.67;3.10;;;19.30;70.40;;;;;;5057349;28;20198;-83
2022/07/31 04:18:09;;;;;;;4.63;2.60;;;19.20;71.20;;;;;;5057527;28;20186;-81
2022/07/31 04:20:34;;;;;;;3.97;2.80;;;19.30;71.50;;;;;;5056754;28;20630;-81
2022/07/31 04:23:02;;;;;;;4.77;3.20;;;19.20;73.70;;;;;;5055643;28;20173;-80
2022/07/31 04:25:28;;;;;;;3.80;3.13;;;19.30;73.50;;;;;;5056735;28;20172;-81
2022/07/31 04:27:54;;;;;;;3.97;3.07;;;19.30;72.70;;;;;;5075890;28;20536;-83
2022/07/31 04:30:19;;;;;;;5.33;2.93;;;19.20;74.70;;;;;;5056290;28;20647;-80
2022/07/31 04:32:45;;;;;;;4.83;3.00;;;19.30;71.20;;;;;;5073580;28;20166;-82
2022/07/31 04:35:12;;;;;;;3.67;2.63;;;19.30;72.50;;;;;;5074533;28;20605;-81
2022/07/31 04:37:38;;;;;;;4.47;3.17;;;19.20;75.80;;;;;;5075199;28;20237;-81
2022/07/31 04:40:04;;;;;;;4.47;3.00;;;19.20;78.40;;;;;;5075256;28;20163;-81
2022/07/31 04:42:31;;;;;;;5.87;2.87;;;19.20;77.90;;;;;;5055690;28;20181;-85
2022/07/31 04:44:56;;;;;;;5.40;3.07;;;19.20;77.50;;;;;;5056587;28;20205;-81
2022/07/31 04:47:22;;;;;;;5.57;2.83;;;19.30;75.20;;;;;;5061440;28;20185;-81
2022/07/31 04:49:48;;;;;;;4.43;2.60;;;19.30;74.40;;;;;;5072302;28;20236;-83
2022/07/31 04:52:13;;;;;;;4.90;3.33;;;19.20;76.70;;;;;;5068300;28;20186;-83
2022/07/31 04:54:42;;;;;;;4.70;2.90;;;19.20;78.40;;;;;;5078934;28;20639;-82
2022/07/31 04:57:09;;;;;;;5.70;3.33;;;19.20;77.20;;;;;;5074437;28;20201;-82
2022/07/31 04:59:35;;;;;;;4.83;3.13;;;19.40;73.20;;;;;;5055476;28;20721;-81
2022/07/31 05:02:01;;;;;;;5.83;3.30;;;19.40;72.30;;;;;;5072844;28;20174;-80
2022/07/31 05:04:27;;;;;;;4.57;3.27;;;19.40;73.80;;;;;;5073355;28;20188;-84
2022/07/31 05:06:53;;;;;;;5.40;3.57;;;19.40;72.80;;;;;;5055470;28;20176;-81
2022/07/31 05:09:24;;;;;;;5.30;3.00;;;19.40;74.40;;;;;;5073074;28;20181;-80
2022/07/31 05:11:50;;;;;;;4.73;3.53;;;19.30;77.30;;;;;;5072880;28;20261;-81
2022/07/31 05:14:17;;;;;;;5.23;3.33;;;19.30;77.20;;;;;;5073334;28;20189;-82
2022/07/31 05:16:43;;;;;;;5.67;3.63;;;19.40;75.70;;;;;;5055276;28;20708;-83
2022/07/31 05:19:10;;;;;;;7.23;3.50;;;19.40;73.60;;;;;;5075889;28;20168;-80
2022/07/31 05:21:35;;;;;;;6.43;3.40;;;19.50;72.00;;;;;;5055388;28;20178;-82
2022/07/31 05:24:01;;;;;;;4.47;3.60;;;19.50;72.30;;;;;;5073368;28;20169;-83
2022/07/31 05:26:28;;;;;;;6.17;3.63;;;19.50;73.40;;;;;;5077888;28;20173;-84
2022/07/31 05:28:56;;;;;;;4.47;3.23;;;19.50;73.20;;;;;;5062379;28;20179;-79
2022/07/31 05:31:21;;;;;;;6.17;3.90;;;19.50;75.10;;;;;;5059315;28;20639;-79
2022/07/31 05:33:48;;;;;;;6.33;3.97;;;19.60;71.50;;;;;;5073470;28;20173;-85
2022/07/31 05:36:15;;;;;;;6.33;3.60;;;19.70;66.80;;;;;;5101786;28;20292;-79
2022/07/31 05:38:42;;;;;;;4.87;3.37;;;19.70;68.20;;;;;;5100190;28;20167;-81
2022/07/31 05:41:08;;;;;;;4.83;3.53;;;19.70;69.80;;;;;;5084098;28;20168;-79
2022/07/31 05:43:34;;;;;;;5.70;3.77;;;19.70;67.50;;;;;;5078301;28;20225;-80
2022/07/31 05:46:01;;;;;;;6.10;3.77;;;19.70;64.00;;;;;;5084812;28;20550;-81
2022/07/31 05:48:27;;;;;;;5.90;3.80;;;19.70;67.10;;;;;;5065586;28;20224;-85
2022/07/31 05:50:53;;;;;;;5.57;3.70;;;19.80;64.10;;;;;;5059921;28;20171;-81
2022/07/31 05:53:19;;;;;;;5.33;3.60;;;19.80;61.80;;;;;;5058436;28;20267;-81
2022/07/31 05:55:47;;;;;;;6.23;3.77;;;19.60;67.80;;;;;;5078598;28;20193;-82
2022/07/31 05:58:16;;;;;;;5.43;3.57;;;19.70;69.00;;;;;;5094691;28;20163;-81
2022/07/31 06:00:43;;;;;;;5.83;3.87;;;19.70;68.30;;;;;;5078591;28;20605;-80
2022/07/31 06:03:11;;;;;;;4.50;4.00;;;19.70;69.90;;;;;;5084903;28;20187;-80
2022/07/31 06:05:40;;;;;;;5.13;3.70;;;19.80;68.10;;;;;;5063501;28;20208;-82
2022/07/31 06:08:12;;;;;;;6.23;4.40;;;19.90;66.90;;;;;;5078069;28;20630;-83
2022/07/31 06:10:38;;;;;;;7.57;3.83;;;19.90;64.90;;;;;;5058699;28;20334;-80
2022/07/31 06:13:04;;;;;;;5.30;3.70;;;19.90;62.80;;;;;;5059953;28;20213;-81
2022/07/31 06:15:30;;;;;;;6.60;4.20;;;20.00;62.10;;;;;;5062411;28;20239;-82
2022/07/31 06:17:55;;;;;;;6.83;4.10;;;20.10;57.30;;;;;;5079168;28;20670;-84
2022/07/31 06:20:21;;;;;;;6.47;3.97;;;20.20;55.10;;;;;;5098665;28;20196;-82
2022/07/31 06:22:47;;;;;;;6.13;3.93;;;20.20;54.40;;;;;;5088904;28;20174;-80
2022/07/31 06:25:15;;;;;;;6.80;5.00;;;20.30;52.90;;;;;;5079702;28;20241;-85
2022/07/31 06:27:42;;;;;;;5.93;4.50;;;20.30;50.10;;;;;;5077858;28;20650;-80
2022/07/31 06:30:08;;;;;;;6.40;4.80;;;20.40;47.80;;;;;;5077353;28;20676;-80
2022/07/31 06:32:35;;;;;;;6.13;5.30;;;20.50;48.30;;;;;;5077149;28;20173;-80
2022/07/31 06:35:01;;;;;;;7.20;5.20;;;20.50;45.30;;;;;;5076153;28;20232;-81
2022/07/31 06:37:27;;;;;;;6.70;5.20;;;20.40;46.30;;;;;;5058799;28;20211;-80
2022/07/31 06:39:53;;;;;;;8.57;5.60;;;20.40;48.50;;;;;;5059528;28;20230;-80
2022/07/31 06:42:20;;;;;;;5.90;4.73;;;20.40;48.70;;;;;;5058072;28;20635;-83
2022/07/31 06:44:46;;;;;;;7.03;5.20;;;20.30;48.30;;;;;;5057209;28;20198;-82
2022/07/31 06:47:12;;;;;;;9.20;5.33;;;20.40;49.70;;;;;;5077347;28;20658;-82
2022/07/31 06:49:38;;;;;;;6.33;4.73;;;20.30;49.90;;;;;;5078753;28;20271;-80
2022/07/31 06:52:04;;;;;;;7.87;4.70;;;20.30;49.90;;;;;;5080216;28;20167;-80
2022/07/31 06:54:31;;;;;;;6.37;4.63;;;20.30;51.30;;;;;;5075447;28;20187;-79
2022/07/31 06:56:56;;;;;;;7.67;5.20;;;20.30;54.40;;;;;;5094737;28;20217;-79
2022/07/31 06:59:22;;;;;;;6.40;5.50;;;20.40;54.40;;;;;;5095497;28;20175;-81
2022/07/31 07:01:49;;;;;;;6.97;5.20;;;20.50;55.50;;;;;;5070181;28;20202;-80
2022/07/31 07:04:18;;;;;;;8.20;5.27;;;20.50;50.80;;;;;;5060877;28;20166;-81
2022/07/31 07:06:43;;;;;;;5.70;5.00;;;20.50;50.60;;;;;;5076620;28;20158;-86
2022/07/31 07:09:11;;;;;;;8.37;5.40;;;20.50;50.30;;;;;;5051629;28;20190;-85
2022/07/31 07:11:41;;;;;;;8.47;4.97;;;20.50;47.70;;;;;;5091538;28;20187;-80
2022/07/31 07:14:13;;;;;;;7.60;4.90;;;20.40;49.80;;;;;;5073706;28;20249;-81
2022/07/31 07:16:42;;;;;;;7.97;4.97;;;20.50;47.60;;;;;;5061482;28;20265;-83
2022/07/31 07:19:07;;;;;;;5.57;4.70;;;20.60;45.00;;;;;;5062568;28;20171;-81
2022/07/31 07:21:33;;;;;;;7.00;4.97;;;20.70;45.50;;;;;;5079982;28;20645;-85
2022/07/31 07:23:59;;;;;;;6.60;4.70;;;20.60;46.20;;;;;;5056870;28;20538;-82
2022/07/31 07:26:24;;;;;;;7.33;5.07;;;20.60;45.50;;;;;;5075504;28;20183;-84
2022/07/31 07:28:50;;;;;;;6.70;4.90;;;20.60;44.20;;;;;;5076163;28;20172;-82
2022/07/31 07:31:15;;;;;;;7.00;4.97;;;20.70;43.40;;;;;;5057140;28;20190;-81
2022/07/31 07:33:41;;;;;;;6.27;4.57;;;20.60;44.50;;;;;;5056631;28;20234;-80
2022/07/31 07:36:09;;;;;;;7.57;5.10;;;20.70;44.00;;;;;;5057359;28;20210;-81
2022/07/31 07:38:34;;;;;;;6.17;4.50;;;20.80;40.30;;;;;;5058481;28;20594;-83
2022/07/31 07:41:00;;;;;;;7.33;5.07;;;20.90;32.50;;;;;;5075157;28;20184;-81
2022/07/31 07:43:26;;;;;;;5.00;4.50;;;20.90;31.70;;;;;;5058893;28;20678;-82
2022/07/31 07:45:51;;;;;;;5.87;4.37;;;21.00;30.90;;;;;;5077833;28;20188;-85
2022/07/31 07:48:17;;;;;;;5.47;4.73;;;21.10;29.30;;;;;;5079341;28;20197;-84
2022/07/31 07:50:44;;;;;;;6.00;4.70;;;21.10;28.80;;;;;;5078600;28;20172;-81
2022/07/31 07:53:12;;;;;;;6.33;4.80;;;21.10;29.30;;;;;;5076787;28;20699;-81
2022/07/31 07:55:37;;;;;;;6.87;4.53;;;21.20;27.10;;;;;;5059393;28;20171;-83
2022/07/31 07:58:04;;;;;;;5.00;4.47;;;21.30;25.20;;;;;;5059599;28;20183;-80
2022/07/31 08:00:30;;;;;;;5.80;4.47;;;21.40;21.80;;;;;;5060071;28;20173;-84
2022/07/31 08:02:57;;;;;;;7.00;4.13;;;21.60;16.90;;;;;;5078082;28;20195;-82
2022/07/31 08:05:22;;;;;;;5.90;4.07;;;21.70;14.00;;;;;;5060018;28;20198;-84
2022/07/31 08:07:48;;;;;;;5.67;4.27;;;21.80;12.50;;;;;;5061044;28;20815;-80
2022/07/31 08:10:17;;;;;;;13.43;4.37;;;21.70;15.40;;;;;;5059392;28;20167;-81
2022/07/31 08:12:46;;;;;;;4.97;3.93;;;21.80;14.50;;;;;;5077859;28;20165;-84
2022/07/31 08:15:12;;;;;;;6.17;3.90;;;21.90;7.10;;;;;;5078598;28;20243;-80
2022/07/31 08:17:37;;;;;;;6.13;3.97;;;22.10;1.00;;;;;;5059409;28;20265;-81
2022/07/31 08:20:07;;;;;;;6.07;3.87;;;22.30;1.00;;;;;;5077366;28;20247;-80
2022/07/31 08:22:35;;;;;;;6.30;3.97;;;22.30;1.00;;;;;;5044546;28;20235;-82
2022/07/31 08:25:04;;;;;;;5.40;3.60;;;22.20;1.00;;;;;;5060920;28;20169;-81
2022/07/31 08:27:32;;;;;;;7.57;4.27;;;22.30;1.00;;;;;;5065845;28;20173;-84
2022/07/31 08:30:01;;;;;;;6.10;3.87;;;22.30;1.00;;;;;;5065144;28;20173;-83
2022/07/31 08:32:28;;;;;;;5.93;4.10;;;22.40;1.00;;;;;;5085610;28;20229;-83
2022/07/31 08:34:56;;;;;;;5.67;4.50;;;22.40;1.00;;;;;;5064337;28;20172;-80
2022/07/31 08:37:22;;;;;;;5.30;4.13;;;22.40;1.00;;;;;;5082103;28;20208;-79
2022/07/31 08:39:49;;;;;;;6.17;4.10;;;22.40;1.00;;;;;;5068135;28;20172;-79
2022/07/31 08:42:16;;;;;;;6.00;4.43;;;22.40;1.00;;;;;;5063857;28;20236;-80
2022/07/31 08:44:45;;;;;;;7.47;4.60;;;22.50;1.00;;;;;;5074821;28;20264;-83
2022/07/31 08:47:21;;;;;;;5.60;4.47;;;22.60;1.00;;;;;;5088655;28;20170;-80
2022/07/31 08:49:50;;;;;;;6.43;4.30;;;22.80;1.00;;;;;;5074721;28;20614;-81
2022/07/31 08:52:23;;;;;;;7.23;4.77;;;23.00;1.00;;;;;;5061743;28;20186;-81
2022/07/31 08:54:53;;;;;;;7.37;5.07;;;23.00;1.00;;;;;;5075610;28;20160;-80
2022/07/31 08:57:19;;;;;;;8.93;4.80;;;23.00;1.00;;;;;;5080376;28;20216;-81
2022/07/31 08:59:47;;;;;;;6.43;4.90;;;23.10;1.00;;;;;;5087142;28;20153;-81
2022/07/31 09:02:14;;;;;;;6.53;4.67;;;23.30;1.00;;;;;;5101911;28;20165;-78
2022/07/31 09:04:40;;;;;;;5.33;4.77;;;23.40;1.00;;;;;;5066159;28;20180;-80
2022/07/31 09:07:40;;;;;;;6.53;4.77;;;23.60;1.00;;;;;;5077485;28;20179;-81
2022/07/31 09:10:58;;;;;;;6.40;4.57;;;23.50;1.00;;;;;;5071565;28;20170;-84
2022/07/31 09:13:27;;;;;;;7.30;4.93;;;23.30;1.00;;;;;;5091992;28;20168;-81
2022/07/31 09:15:57;;;;;;;5.83;5.10;;;23.40;1.00;;;;;;5072201;28;20230;-83
2022/07/31 09:18:24;;;;;;;7.53;5.13;;;23.40;1.00;;;;;;5086674;28;20168;-82
2022/07/31 09:20:58;;;;;;;8.60;5.80;;;23.40;1.00;;;;;;5065765;28;20192;-82
2022/07/31 09:23:25;;;;;;;7.53;6.20;;;23.30;1.00;;;;;;5065976;28;20232;-82
2022/07/31 09:25:55;;;;;;;6.70;6.20;;;23.40;1.00;;;;;;5089056;28;20186;-83
2022/07/31 09:28:38;;;;;;;6.80;6.07;;;23.40;1.00;;;;;;5092592;28;20218;-81
2022/07/31 09:31:05;;;;;;;7.70;7.00;;;23.70;1.00;;;;;;5083620;28;20167;-80
2022/07/31 09:33:45;;;;;;;6.90;6.10;;;23.90;1.00;;;;;;5080532;28;20183;-80
2022/07/31 09:36:36;;;;;;;6.57;5.97;;;24.00;1.00;;;;;;5074285;28;20668;-79
2022/07/31 09:39:13;;;;;;;10.90;6.07;;;24.20;1.00;;;;;;5073915;28;20183;-82
2022/07/31 09:41:48;;;;;;;6.70;5.27;;;24.20;1.00;;;;;;5067504;28;20229;-83
2022/07/31 09:44:15;;;;;;;5.93;5.33;;;24.20;1.00;;;;;;5082332;28;20215;-81
2022/07/31 09:46:47;;;;;;;6.40;5.77;;;24.10;1.00;;;;;;5047584;28;20192;-84
2022/07/31 09:49:13;;;;;;;6.47;5.70;;;24.10;1.00;;;;;;5065868;28;20616;-83
2022/07/31 09:51:40;;;;;;;6.53;5.73;;;24.00;1.00;;;;;;5081852;28;20191;-81
2022/07/31 09:54:07;;;;;;;5.73;4.97;;;24.00;1.00;;;;;;5079538;28;20182;-84
2022/07/31 09:56:34;;;;;;;8.37;5.33;;;24.00;1.00;;;;;;5061760;28;20211;-83
2022/07/31 09:59:01;;;;;;;6.10;5.37;;;23.90;1.00;;;;;;5086120;28;20179;-80
2022/07/31 10:01:28;;;;;;;7.93;5.17;;;24.00;1.00;;;;;;5064518;28;20179;-83
2022/07/31 10:03:59;;;;;;;6.20;5.47;;;24.00;1.00;;;;;;5063996;28;20192;-80
2022/07/31 10:06:26;;;;;;;8.13;5.70;;;24.20;1.00;;;;;;5063685;28;20267;-85
2022/07/31 10:08:54;;;;;;;6.93;5.60;;;24.50;1.00;;;;;;5046772;28;20216;-83
2022/07/31 10:11:21;;;;;;;7.87;5.80;;;24.50;1.00;;;;;;5065048;28;20176;-82
2022/07/31 10:13:49;;;;;;;6.17;5.57;;;24.40;1.00;;;;;;5064080;28;20199;-83
2022/07/31 10:16:16;;;;;;;6.57;5.90;;;24.60;1.00;;;;;;5046218;28;20227;-81
2022/07/31 10:18:48;;;;;;;9.03;6.10;;;24.50;1.00;;;;;;5064786;28;20177;-82
2022/07/31 10:21:15;;;;;;;6.97;5.60;;;24.30;1.00;;;;;;5079982;28;20152;-83
2022/07/31 10:23:43;;;;;;;7.30;5.80;;;24.20;1.00;;;;;;5061047;28;20172;-80
2022/07/31 10:26:19;;;;;;;7.03;5.60;;;24.10;1.00;;;;;;5091249;28;20176;-86
2022/07/31 10:28:48;;;;;;;7.77;5.47;;;24.00;1.00;;;;;;5083262;28;20530;-82
2022/07/31 10:31:14;;;;;;;6.73;4.90;;;24.00;1.00;;;;;;5088293;28;20148;-82
2022/07/31 10:33:41;;;;;;;6.43;5.40;;;24.00;1.00;;;;;;5045601;28;20184;-82
2022/07/31 10:36:21;;;;;;;6.33;4.80;;;24.00;1.00;;;;;;5080520;28;20195;-83
2022/07/31 10:39:08;;;;;;;6.13;5.40;;;23.90;1.00;;;;;;5081188;28;20189;-83
2022/07/31 10:42:16;;;;;;;6.53;4.83;;;23.80;1.00;;;;;;5080557;28;20251;-87
2022/07/31 10:45:04;;;;;;;6.07;4.67;;;24.00;1.00;;;;;;5069114;28;20212;-82
2022/07/31 10:47:29;;;;;;;5.60;4.80;;;24.00;1.00;;;;;;5090579;28;20175;-81
2022/07/31 10:49:55;;;;;;;5.73;4.87;;;23.90;1.00;;;;;;5087690;28;20598;-81
2022/07/31 10:52:31;;;;;;;8.03;4.83;;;24.00;1.00;;;;;;5089787;28;20256;-81
2022/07/31 10:55:00;;;;;;;7.03;4.80;;;24.10;1.00;;;;;;5093615;28;20174;-82
2022/07/31 10:57:31;;;;;;;7.57;4.77;;;24.20;1.00;;;;;;5075516;28;20295;-82
2022/07/31 11:00:12;;;;;;;5.43;4.30;;;24.40;1.00;;;;;;5063074;28;20203;-84
2022/07/31 11:02:39;;;;;;;6.27;5.13;;;24.50;1.00;;;;;;5064374;28;20172;-85
2022/07/31 11:05:26;;;;;;;7.70;5.30;;;24.50;1.00;;;;;;5062885;28;20172;-84
2022/07/31 11:08:06;;;;;;;5.83;3.87;;;24.30;1.00;;;;;;5081328;28;20682;-86
2022/07/31 11:10:33;;;;;;;4.47;3.87;;;24.30;1.00;;;;;;5064985;28;20182;-83
2022/07/31 11:13:25;;;;;;;7.40;4.20;;;24.10;1.00;;;;;;5062981;28;20519;-83
2022/07/31 11:16:02;;;;;;;5.83;4.03;;;24.00;1.00;;;;;;5061588;28;20206;-81
2022/07/31 11:18:28;;;;;;;4.57;3.90;;;23.90;1.00;;;;;;5081252;28;20540;-81
2022/07/31 11:21:02;;;;;;;5.40;3.80;;;24.10;1.00;;;;;;5062109;28;20176;-82
2022/07/31 11:23:31;;;;;;;4.87;3.33;;;24.20;1.00;;;;;;5047591;28;20187;-85
2022/07/31 11:26:05;;;;;;;6.20;3.83;;;24.40;1.00;;;;;;5060425;28;20182;-82
2022/07/31 11:28:32;;;;;;;6.53;3.50;;;24.30;1.00;;;;;;5071649;28;20230;-83
2022/07/31 11:31:06;;;;;;;4.57;3.30;;;24.20;1.00;;;;;;5081462;28;20235;-82
2022/07/31 11:33:35;;;;;;;3.90;2.90;;;24.20;1.00;;;;;;5069049;28;20222;-81
2022/07/31 11:36:12;;;;;;;6.57;3.23;;;24.20;1.00;;;;;;5064904;28;20225;-81
2022/07/31 11:38:46;;;;;;;6.37;3.33;;;24.10;1.00;;;;;;5060784;28;20287;-86
2022/07/31 11:41:13;;;;;;;5.33;3.50;;;23.90;1.00;;;;;;5077647;28;20211;-82
2022/07/31 11:43:46;;;;;;;4.57;3.50;;;23.80;1.00;;;;;;5076732;28;20540;-83
2022/07/31 11:46:13;;;;;;;4.27;3.43;;;23.80;1.00;;;;;;5061495;28;20194;-81
2022/07/31 11:48:40;;;;;;;4.73;3.83;;;23.70;1.00;;;;;;5073519;28;20209;-82
2022/07/31 11:51:05;;;;;;;5.97;3.47;;;23.80;1.00;;;;;;5081051;28;20187;-83
2022/07/31 11:53:40;;;;;;;4.23;3.30;;;23.90;1.00;;;;;;5087151;28;20210;-83
2022/07/31 11:56:09;;;;;;;8.23;3.40;;;24.00;1.00;;;;;;5069466;28;20226;-80
2022/07/31 11:58:36;;;;;;;5.50;3.13;;;24.10;1.00;;;;;;5090755;28;20175;-82
2022/07/31 12:01:04;;;;;;;4.07;2.90;;;24.20;1.00;;;;;;5059188;28;20183;-82
2022/07/31 12:03:39;;;;;;;5.20;3.20;;;24.20;1.00;;;;;;5078562;28;20181;-83
2022/07/31 12:06:09;;;;;;;5.03;3.00;;;24.40;1.00;;;;;;5065953;28;20168;-85
2022/07/31 12:08:37;;;;;;;6.33;2.93;;;24.40;1.00;;;;;;5065445;28;20263;-84
2022/07/31 12:11:06;;;;;;;4.47;2.50;;;24.60;1.00;;;;;;5058308;28;20195;-83
2022/07/31 12:13:32;;;;;;;3.40;2.60;;;24.60;1.00;;;;;;5059389;28;20194;-82
2022/07/31 12:16:04;;;;;;;6.17;2.50;;;24.70;1.00;;;;;;5063392;28;20196;-84
2022/07/31 12:18:48;;;;;;;3.60;2.30;;;24.70;1.00;;;;;;5083016;28;20164;-81
2022/07/31 12:21:15;;;;;;;4.40;2.70;;;24.80;1.00;;;;;;5080588;28;20152;-85
2022/07/31 12:23:45;;;;;;;8.27;2.40;;;25.00;1.00;;;;;;5061681;28;20222;-85
2022/07/31 12:26:20;;;;;;;3.33;2.17;;;25.00;1.00;;;;;;5062673;28;20564;-83
2022/07/31 12:29:00;;;;;;;3.77;2.50;;;25.10;1.00;;;;;;5078991;28;20247;-80
2022/07/31 12:31:29;;;;;;;3.67;2.30;;;24.90;1.00;;;;;;5043586;28;20248;-80
2022/07/31 12:33:55;;;;;;;4.17;2.30;;;24.70;1.00;;;;;;5059947;28;20677;-82
2022/07/31 12:36:21;;;;;;;4.70;2.43;;;24.60;1.00;;;;;;5060198;28;20211;-81
2022/07/31 12:39:01;;;;;;;3.63;2.20;;;24.80;1.00;;;;;;5059945;28;20175;-82
2022/07/31 12:41:28;;;;;;;3.67;1.70;;;24.90;1.00;;;;;;5060038;28;20309;-81
2022/07/31 12:43:54;;;;;;;3.80;1.90;;;25.00;1.00;;;;;;5078214;28;20195;-82
2022/07/31 12:46:34;;;;;;;4.20;1.97;;;24.90;1.00;;;;;;5061700;28;20199;-83
2022/07/31 12:49:00;;;;;;;3.23;1.60;;;25.00;1.00;;;;;;5061846;28;20172;-82
2022/07/31 12:51:25;;;;;;;2.83;1.73;;;25.00;1.00;;;;;;5060216;28;20779;-85
2022/07/31 12:53:52;;;;;;;2.17;1.50;;;25.00;1.00;;;;;;5061148;28;20172;-84
2022/07/31 12:56:18;;;;;;;4.90;1.97;;;25.20;1.00;;;;;;5059967;28;20204;-83
2022/07/31 12:58:45;;;;;;;5.07;1.93;;;25.30;1.00;;;;;;5061411;28;20657;-84
2022/07/31 13:01:11;;;;;;;4.57;2.17;;;25.40;1.00;;;;;;5060304;28;20556;-86
2022/07/31 13:03:36;;;;;;;3.73;1.30;;;25.30;1.00;;;;;;5078210;28;20168;-86